createdAt,value
2023-03-03T00:00:20.072Z,22.40
2023-03-03T00:03:12.860Z,22.40
2023-03-03T00:05:43.042Z,22.30
2023-03-03T00:08:12.563Z,24.20
2023-03-03T00:10:43.379Z,25.70
2023-03-03T00:13:24.989Z,25.80
2023-03-03T00:16:07.363Z,22.70
2023-03-03T00:18:41.273Z,23.20
2023-03-03T00:21:36.010Z,22.80
2023-03-03T00:24:14.736Z,22.60
2023-03-03T00:26:56.247Z,20.40
2023-03-03T00:29:48.694Z,20.90
2023-03-03T00:32:24.513Z,20.00
2023-03-03T00:35:01.506Z,19.00
2023-03-03T00:37:35.923Z,20.00
2023-03-03T00:40:41.826Z,14.40
2023-03-03T00:43:25.692Z,13.70
2023-03-03T00:45:56.942Z,17.00
2023-03-03T00:48:30.606Z,16.00
2023-03-03T00:51:02.057Z,19.00
2023-03-03T00:53:32.873Z,15.20
2023-03-03T00:56:02.090Z,13.80
2023-03-03T00:58:31.491Z,15.80
2023-03-03T01:01:01.112Z,13.90
2023-03-03T01:03:41.012Z,13.90
2023-03-03T01:06:12.591Z,14.70
2023-03-03T01:08:42.584Z,15.20
2023-03-03T01:11:24.366Z,14.60
2023-03-03T01:13:54.254Z,15.70
2023-03-03T01:16:24.113Z,12.20
2023-03-03T01:18:53.182Z,11.20
2023-03-03T01:21:23.436Z,12.80
2023-03-03T01:23:53.694Z,10.80
2023-03-03T01:26:28.786Z,13.80
2023-03-03T01:28:58.236Z,11.90
2023-03-03T01:31:27.929Z,14.10
2023-03-03T01:33:57.725Z,14.00
2023-03-03T01:36:29.721Z,15.10
2023-03-03T01:38:58.885Z,12.30
2023-03-03T01:41:31.492Z,12.60
2023-03-03T01:44:02.069Z,13.90
2023-03-03T01:47:05.269Z,14.20
2023-03-03T01:49:39.922Z,11.50
2023-03-03T01:52:28.130Z,13.10
2023-03-03T01:55:05.349Z,14.70
2023-03-03T01:57:42.399Z,12.40
2023-03-03T02:00:13.754Z,13.00
2023-03-03T02:02:44.659Z,11.60
2023-03-03T02:05:15.622Z,11.60
2023-03-03T02:07:46.274Z,11.50
2023-03-03T02:10:18.672Z,10.80
2023-03-03T02:12:54.212Z,11.90
2023-03-03T02:15:28.697Z,11.70
2023-03-03T02:18:09.354Z,14.00
2023-03-03T02:21:08.553Z,13.90
2023-03-03T02:24:22.277Z,12.10
2023-03-03T02:26:52.018Z,13.20
2023-03-03T02:29:23.544Z,14.70
2023-03-03T02:31:53.145Z,13.40
2023-03-03T02:34:25.230Z,12.90
2023-03-03T02:36:55.329Z,10.40
2023-03-03T02:39:27.006Z,16.30
2023-03-03T02:42:19.219Z,12.50
2023-03-03T02:44:52.656Z,10.70
2023-03-03T02:47:22.368Z,10.50
2023-03-03T02:49:52.176Z,10.90
2023-03-03T02:52:21.787Z,9.90
2023-03-03T02:54:51.633Z,11.40
2023-03-03T02:57:22.103Z,10.90
2023-03-03T02:59:51.598Z,13.70
2023-03-03T03:02:21.611Z,13.60
2023-03-03T03:04:50.802Z,13.00
2023-03-03T03:07:24.706Z,13.50
2023-03-03T03:09:55.365Z,10.90
2023-03-03T03:12:25.477Z,12.70
2023-03-03T03:14:55.555Z,14.50
2023-03-03T03:17:25.110Z,11.80
2023-03-03T03:19:56.153Z,13.60
2023-03-03T03:22:25.879Z,16.40
2023-03-03T03:24:56.125Z,13.10
2023-03-03T03:27:25.705Z,12.30
2023-03-03T03:29:55.489Z,11.60
2023-03-03T03:32:25.683Z,11.10
2023-03-03T03:34:56.050Z,14.00
2023-03-03T03:37:25.839Z,14.70
2023-03-03T03:39:56.966Z,10.40
2023-03-03T03:44:59.468Z,10.40
2023-03-03T03:47:29.898Z,10.10
2023-03-03T03:50:00.610Z,13.30
2023-03-03T03:52:30.175Z,15.10
2023-03-03T03:54:59.715Z,12.00
2023-03-03T03:57:29.376Z,11.30
2023-03-03T03:59:59.591Z,14.20
2023-03-03T04:02:30.444Z,12.90
2023-03-03T04:05:01.551Z,19.40
2023-03-03T04:07:30.696Z,13.90
2023-03-03T04:09:59.987Z,14.40
2023-03-03T04:12:29.950Z,14.20
2023-03-03T04:15:00.622Z,10.00
2023-03-03T04:17:31.691Z,17.60
2023-03-03T04:20:01.140Z,13.10
2023-03-03T04:22:40.290Z,11.90
2023-03-03T04:25:15.611Z,13.90
2023-03-03T04:27:46.312Z,9.90
2023-03-03T04:30:23.023Z,10.90
2023-03-03T04:32:56.022Z,13.20
2023-03-03T04:35:26.863Z,13.60
2023-03-03T04:37:56.576Z,14.10
2023-03-03T04:40:26.803Z,11.40
2023-03-03T04:49:59.315Z,12.30
2023-03-03T04:52:30.005Z,10.80
2023-03-03T04:55:00.236Z,14.70
2023-03-03T04:57:30.508Z,11.90
2023-03-03T05:00:00.607Z,14.80
2023-03-03T05:02:31.053Z,18.70
2023-03-03T05:05:00.352Z,13.40
2023-03-03T05:07:31.394Z,12.50
2023-03-03T05:10:00.474Z,12.60
2023-03-03T05:12:31.047Z,14.10
2023-03-03T05:15:01.775Z,16.10
2023-03-03T05:17:32.023Z,14.60
2023-03-03T05:20:01.682Z,18.20
2023-03-03T05:22:30.855Z,14.90
2023-03-03T05:25:00.559Z,15.80
2023-03-03T05:27:31.774Z,16.60
2023-03-03T05:30:00.946Z,27.60
2023-03-03T05:32:31.212Z,16.10
2023-03-03T05:35:00.916Z,13.40
2023-03-03T05:37:30.176Z,13.10
2023-03-03T05:39:59.392Z,13.80
2023-03-03T05:42:29.220Z,14.10
2023-03-03T05:44:59.091Z,14.00
2023-03-03T05:47:29.952Z,17.80
2023-03-03T05:49:59.183Z,16.60
2023-03-03T05:52:28.344Z,15.50
2023-03-03T05:54:58.145Z,14.40
2023-03-03T05:57:27.307Z,15.90
2023-03-03T05:59:57.330Z,15.50
2023-03-03T06:02:26.855Z,15.00
2023-03-03T06:04:59.264Z,16.50
2023-03-03T06:07:28.577Z,15.00
2023-03-03T06:09:58.877Z,17.60
2023-03-03T06:12:29.057Z,13.20
2023-03-03T06:14:58.952Z,18.30
2023-03-03T06:17:28.948Z,17.70
2023-03-03T06:19:58.801Z,17.70
2023-03-03T06:22:28.316Z,13.80
2023-03-03T06:24:59.787Z,17.20
2023-03-03T06:27:29.560Z,14.90
2023-03-03T06:29:59.705Z,15.30
2023-03-03T06:32:29.358Z,18.20
2023-03-03T06:34:59.928Z,16.30
2023-03-03T06:37:29.810Z,16.10
2023-03-03T06:39:59.151Z,18.20
2023-03-03T06:42:29.097Z,17.50
2023-03-03T06:45:00.112Z,21.70
2023-03-03T06:47:32.193Z,16.50
2023-03-03T06:52:37.831Z,19.50
2023-03-03T06:55:24.152Z,16.90
2023-03-03T06:57:56.368Z,17.60
2023-03-03T07:00:30.799Z,15.70
2023-03-03T07:03:13.666Z,21.90
2023-03-03T07:05:44.420Z,18.70
2023-03-03T07:08:21.995Z,18.60
2023-03-03T07:10:54.220Z,17.90
2023-03-03T07:13:26.760Z,16.30
2023-03-03T07:16:13.089Z,14.90
2023-03-03T07:18:57.875Z,13.50
2023-03-03T07:21:39.022Z,15.90
2023-03-03T07:24:37.526Z,16.60
2023-03-03T07:27:18.809Z,16.70
2023-03-03T07:29:50.392Z,17.60
2023-03-03T07:32:27.829Z,16.30
2023-03-03T07:34:58.560Z,15.80
2023-03-03T07:37:39.090Z,19.10
2023-03-03T07:40:34.012Z,16.80
2023-03-03T07:43:19.233Z,15.60
2023-03-03T07:45:49.219Z,13.90
2023-03-03T07:48:42.306Z,18.40
2023-03-03T07:51:42.717Z,16.20
2023-03-03T07:54:36.280Z,17.20
2023-03-03T07:57:27.428Z,16.60
2023-03-03T08:00:22.991Z,15.50
2023-03-03T08:03:05.833Z,19.60
2023-03-03T08:05:42.527Z,19.90
2023-03-03T08:08:50.911Z,23.80
2023-03-03T08:11:20.045Z,18.50
2023-03-03T08:13:50.568Z,18.40
2023-03-03T08:16:39.243Z,18.70
2023-03-03T08:19:11.589Z,15.50
2023-03-03T08:21:44.990Z,27.60
2023-03-03T08:24:14.410Z,20.60
2023-03-03T08:26:45.634Z,16.90
2023-03-03T08:29:26.288Z,17.50
2023-03-03T08:31:56.043Z,23.90
2023-03-03T08:34:26.934Z,27.10
2023-03-03T08:36:58.908Z,23.80
2023-03-03T08:39:29.505Z,23.70
2023-03-03T08:41:59.279Z,23.00
2023-03-03T08:44:29.703Z,21.50
2023-03-03T08:47:00.726Z,22.70
2023-03-03T08:49:32.135Z,20.40
2023-03-03T08:52:02.600Z,23.90
2023-03-03T08:54:32.818Z,20.10
2023-03-03T08:57:02.639Z,18.00
2023-03-03T08:59:31.870Z,18.00
2023-03-03T09:02:01.962Z,14.10
2023-03-03T09:04:32.026Z,13.90
2023-03-03T09:07:02.904Z,13.50
2023-03-03T09:09:33.113Z,11.70
2023-03-03T09:12:18.474Z,17.00
2023-03-03T09:14:51.707Z,11.70
2023-03-03T09:17:26.472Z,8.70
2023-03-03T09:20:04.548Z,12.30
2023-03-03T09:22:38.719Z,12.90
2023-03-03T09:25:23.693Z,7.90
2023-03-03T09:27:55.436Z,10.80
2023-03-03T09:30:45.297Z,9.30
2023-03-03T09:33:30.799Z,14.30
2023-03-03T09:36:13.752Z,8.30
2023-03-03T09:38:46.307Z,13.40
2023-03-03T09:41:42.868Z,9.00
2023-03-03T09:44:17.930Z,9.50
2023-03-03T09:47:08.807Z,9.30
2023-03-03T09:50:09.746Z,7.20
2023-03-03T09:52:58.748Z,8.70
2023-03-03T09:55:58.017Z,9.50
2023-03-03T09:58:35.425Z,9.30
2023-03-03T10:01:29.594Z,8.70
2023-03-03T10:04:36.709Z,7.30
2023-03-03T10:07:34.138Z,9.60
2023-03-03T10:10:31.513Z,6.20
2023-03-03T10:13:38.077Z,11.50
2023-03-03T10:16:49.866Z,9.60
2023-03-03T10:19:29.416Z,10.10
2023-03-03T10:22:40.902Z,9.40
2023-03-03T10:25:23.150Z,7.30
2023-03-03T10:28:04.987Z,10.60
2023-03-03T10:33:55.422Z,9.00
2023-03-03T10:36:35.788Z,9.50
2023-03-03T10:39:21.341Z,9.60
2023-03-03T10:42:02.719Z,7.90
2023-03-03T10:45:05.769Z,7.70
2023-03-03T10:47:39.699Z,6.50
2023-03-03T10:50:27.637Z,8.70
2023-03-03T10:53:05.856Z,12.40
2023-03-03T10:55:56.098Z,10.90
2023-03-03T10:58:44.632Z,7.40
2023-03-03T11:01:29.783Z,9.30
2023-03-03T11:04:18.653Z,21.00
2023-03-03T11:07:10.527Z,11.80
2023-03-03T11:10:06.644Z,9.70
2023-03-03T11:12:54.414Z,12.50
2023-03-03T11:15:34.845Z,9.00
2023-03-03T11:18:35.329Z,9.10
2023-03-03T11:21:11.670Z,9.20
2023-03-03T11:23:49.246Z,14.50
2023-03-03T11:27:00.565Z,8.60
2023-03-03T11:29:41.374Z,7.60
2023-03-03T11:32:42.374Z,11.00
2023-03-03T11:35:23.606Z,10.10
2023-03-03T11:38:24.557Z,7.20
2023-03-03T11:41:26.523Z,10.20
2023-03-03T11:44:04.918Z,8.30
2023-03-03T11:46:53.240Z,9.00
2023-03-03T11:49:40.123Z,7.70
2023-03-03T11:52:42.060Z,7.50
2023-03-03T11:55:28.339Z,7.50
2023-03-03T11:58:32.650Z,9.20
2023-03-03T12:01:11.822Z,7.40
2023-03-03T12:03:59.169Z,7.60
2023-03-03T12:06:41.679Z,11.00
2023-03-03T12:09:37.232Z,9.60
2023-03-03T12:12:37.899Z,9.20
2023-03-03T12:15:48.815Z,9.10
2023-03-03T12:18:33.294Z,11.70
2023-03-03T12:21:24.026Z,8.60
2023-03-03T12:24:23.610Z,10.80
2023-03-03T12:27:00.777Z,10.50
2023-03-03T12:29:51.680Z,7.80
2023-03-03T12:32:49.630Z,12.60
2023-03-03T12:35:45.379Z,8.50
2023-03-03T12:38:53.726Z,12.70
2023-03-03T12:42:11.664Z,10.80
2023-03-03T12:45:18.334Z,8.70
2023-03-03T12:47:52.481Z,9.00
2023-03-03T12:50:43.119Z,11.20
2023-03-03T12:53:35.139Z,20.20
2023-03-03T12:56:24.044Z,11.20
2023-03-03T12:59:15.988Z,11.10
2023-03-03T13:02:16.550Z,9.90
2023-03-03T13:05:07.508Z,10.00
2023-03-03T13:07:57.284Z,9.40
2023-03-03T13:10:38.971Z,11.20
2023-03-03T13:13:33.120Z,11.00
2023-03-03T13:16:16.878Z,9.90
2023-03-03T13:19:02.099Z,9.70
2023-03-03T13:21:39.164Z,8.80
2023-03-03T13:24:26.946Z,12.80
2023-03-03T13:27:05.924Z,12.60
2023-03-03T13:29:51.290Z,13.20
2023-03-03T13:32:42.737Z,10.50
2023-03-03T13:35:50.172Z,7.70
2023-03-03T13:38:26.539Z,11.20
2023-03-03T13:41:18.413Z,13.70
2023-03-03T13:44:06.933Z,9.40
2023-03-03T13:46:51.219Z,13.10
2023-03-03T13:49:47.863Z,8.30
2023-03-03T13:52:30.832Z,10.70
2023-03-03T13:55:41.799Z,11.00
2023-03-03T13:58:41.638Z,10.60
2023-03-03T14:01:45.833Z,7.90
2023-03-03T14:04:24.251Z,11.20
2023-03-03T14:07:00.597Z,7.90
2023-03-03T14:09:51.688Z,11.60
2023-03-03T14:12:27.526Z,12.80
2023-03-03T14:15:29.570Z,11.80
2023-03-03T14:18:31.352Z,12.60
2023-03-03T14:21:11.467Z,10.40
2023-03-03T14:24:01.762Z,15.40
2023-03-03T14:26:32.200Z,11.30
2023-03-03T14:29:23.169Z,11.90
2023-03-03T14:31:58.688Z,10.10
2023-03-03T14:34:38.833Z,10.40
2023-03-03T14:37:28.537Z,9.90
2023-03-03T14:40:09.989Z,9.30
2023-03-03T14:43:09.260Z,11.50
2023-03-03T14:48:21.108Z,12.40
2023-03-03T14:50:55.278Z,11.10
2023-03-03T14:56:27.242Z,11.30
2023-03-03T14:59:15.245Z,12.70
2023-03-03T15:01:44.714Z,14.30
2023-03-03T15:04:18.221Z,11.80
2023-03-03T15:06:52.991Z,12.90
2023-03-03T15:09:43.194Z,14.20
2023-03-03T15:12:21.738Z,12.30
2023-03-03T15:14:54.298Z,15.80
2023-03-03T15:17:36.068Z,16.70
2023-03-03T15:20:43.883Z,15.00
2023-03-03T15:23:33.481Z,13.60
2023-03-03T15:26:45.622Z,12.80
2023-03-03T15:29:34.687Z,14.80
2023-03-03T15:32:06.677Z,13.30
2023-03-03T15:40:26.394Z,17.50
2023-03-03T15:43:14.498Z,16.30
2023-03-03T15:46:16.865Z,13.40
2023-03-03T15:49:02.015Z,14.20
2023-03-03T15:52:03.555Z,14.40
2023-03-03T15:55:10.004Z,10.90
2023-03-03T15:57:53.158Z,11.50
2023-03-03T16:00:45.880Z,12.30
2023-03-03T16:03:28.894Z,15.60
2023-03-03T16:06:07.208Z,15.50
2023-03-03T16:09:08.287Z,13.50
2023-03-03T16:11:50.331Z,14.00
2023-03-03T16:14:49.374Z,14.80
2023-03-03T16:17:37.964Z,14.40
2023-03-03T16:20:10.109Z,13.80
2023-03-03T16:22:49.462Z,27.00
2023-03-03T16:25:29.465Z,15.00
2023-03-03T16:28:02.076Z,16.40
2023-03-03T16:33:11.935Z,16.30
2023-03-03T16:36:03.451Z,16.10
2023-03-03T16:38:52.839Z,14.60
2023-03-03T16:42:12.259Z,19.40
2023-03-03T16:44:59.830Z,24.60
2023-03-03T16:47:35.157Z,20.80
2023-03-03T16:50:44.408Z,18.40
2023-03-03T16:53:43.095Z,18.00
2023-03-03T16:56:43.921Z,19.40
2023-03-03T16:59:56.250Z,26.90
2023-03-03T17:02:46.428Z,21.90
2023-03-03T17:05:44.808Z,23.00
2023-03-03T17:08:56.646Z,21.70
2023-03-03T17:12:06.828Z,25.60
2023-03-03T17:14:46.734Z,25.50
2023-03-03T17:17:52.992Z,24.90
2023-03-03T17:21:10.717Z,24.70
2023-03-03T17:24:27.560Z,26.10
2023-03-03T17:27:22.892Z,29.20
2023-03-03T17:29:55.440Z,36.00
2023-03-03T17:36:04.529Z,25.90
2023-03-03T17:38:52.584Z,33.20
2023-03-03T17:41:35.761Z,28.40
2023-03-03T17:44:24.097Z,32.90
2023-03-03T17:47:08.635Z,33.10
2023-03-03T17:49:55.538Z,30.70
2023-03-03T17:53:01.436Z,28.00
2023-03-03T17:55:41.046Z,31.00
2023-03-03T17:58:26.796Z,31.00
2023-03-03T18:01:09.064Z,33.10
2023-03-03T18:04:08.169Z,24.20
2023-03-03T18:07:16.155Z,28.20
2023-03-03T18:10:25.900Z,28.20
2023-03-03T18:13:28.629Z,27.00
2023-03-03T18:16:25.459Z,34.90
2023-03-03T18:19:19.195Z,26.20
2023-03-03T18:21:49.530Z,33.40
2023-03-03T18:25:00.171Z,31.50
2023-03-03T18:27:40.304Z,31.70
2023-03-03T18:30:26.703Z,25.10
2023-03-03T18:33:31.399Z,24.10
2023-03-03T18:36:36.628Z,22.50
2023-03-03T18:39:15.749Z,26.10
2023-03-03T18:42:31.961Z,32.70
2023-03-03T18:45:25.178Z,23.50
2023-03-03T18:48:12.255Z,22.20
2023-03-03T18:50:48.097Z,28.20
2023-03-03T18:53:27.376Z,24.00
2023-03-03T18:56:03.138Z,27.40
2023-03-03T18:58:42.070Z,22.10
2023-03-03T19:01:35.150Z,27.50
2023-03-03T19:04:14.432Z,24.30
2023-03-03T19:06:44.087Z,29.80
2023-03-03T19:09:49.824Z,22.80
2023-03-03T19:12:44.981Z,23.10
2023-03-03T19:15:33.962Z,14.40
2023-03-03T19:18:18.235Z,28.40
2023-03-03T19:21:05.800Z,19.60
2023-03-03T19:24:01.419Z,28.40
2023-03-03T19:26:38.934Z,24.70
2023-03-03T19:29:48.386Z,25.70
2023-03-03T19:32:45.744Z,21.40
2023-03-03T19:35:28.800Z,21.70
2023-03-03T19:38:07.679Z,24.30
2023-03-03T19:41:15.325Z,24.30
2023-03-03T19:43:54.712Z,22.00
2023-03-03T19:46:37.396Z,25.00
2023-03-03T19:49:33.392Z,21.10
2023-03-03T19:52:20.312Z,23.70
2023-03-03T19:55:37.293Z,21.10
2023-03-03T19:58:27.697Z,29.20
2023-03-03T20:01:26.209Z,21.10
2023-03-03T20:04:42.707Z,24.30
2023-03-03T20:07:30.500Z,22.90
2023-03-03T20:10:27.418Z,24.90
2023-03-03T20:13:08.365Z,27.50
2023-03-03T20:15:44.845Z,26.80
2023-03-03T20:18:37.128Z,28.60
2023-03-03T20:21:56.456Z,24.80
2023-03-03T20:25:05.676Z,25.60
2023-03-03T20:28:00.563Z,25.10
2023-03-03T20:30:46.722Z,33.10
2023-03-03T20:33:44.911Z,21.60
2023-03-03T20:36:26.916Z,22.30
2023-03-03T20:39:38.890Z,26.40
2023-03-03T20:42:08.562Z,24.30
2023-03-03T20:45:10.374Z,28.20
2023-03-03T20:48:12.101Z,23.90
2023-03-03T20:51:13.127Z,24.00
2023-03-03T20:54:15.298Z,22.10
2023-03-03T20:57:03.749Z,27.80
2023-03-03T20:59:50.013Z,23.30
2023-03-03T21:02:38.528Z,23.80
2023-03-03T21:05:28.382Z,27.40
2023-03-03T21:08:03.347Z,28.90
2023-03-03T21:10:36.645Z,22.30
2023-03-03T21:13:57.381Z,27.10
2023-03-03T21:16:27.438Z,22.80
2023-03-03T21:19:12.399Z,25.80
2023-03-03T21:21:46.734Z,24.50
2023-03-03T21:24:20.173Z,22.50
2023-03-03T21:27:01.728Z,25.10
2023-03-03T21:29:34.609Z,23.70
2023-03-03T21:32:07.020Z,25.80
2023-03-03T21:34:39.910Z,23.10
2023-03-03T21:37:35.102Z,26.30
2023-03-03T21:40:21.514Z,24.10
2023-03-03T21:42:51.892Z,25.90
2023-03-03T21:45:21.214Z,21.20
2023-03-03T21:47:54.119Z,20.90
2023-03-03T21:50:25.031Z,25.20
2023-03-03T21:52:56.748Z,23.50
2023-03-03T21:55:27.509Z,23.50
2023-03-03T21:57:57.212Z,26.00
2023-03-03T22:00:27.271Z,32.00
2023-03-03T22:02:57.932Z,26.60
2023-03-03T22:05:27.196Z,29.20
2023-03-03T22:07:56.781Z,31.90
2023-03-03T22:10:26.261Z,27.30
2023-03-03T22:12:56.690Z,31.10
2023-03-03T22:15:28.313Z,27.90
2023-03-03T22:17:57.340Z,30.80
2023-03-03T22:20:27.020Z,27.60
2023-03-03T22:22:58.051Z,28.60
2023-03-03T22:25:27.725Z,29.20
2023-03-03T22:27:57.617Z,26.60
2023-03-03T22:30:26.877Z,28.50
2023-03-03T22:32:56.748Z,27.00
2023-03-03T22:35:25.786Z,26.10
2023-03-03T22:37:56.514Z,26.90
2023-03-03T22:40:26.685Z,31.20
2023-03-03T22:42:56.468Z,28.20
2023-03-03T22:45:26.248Z,25.20
2023-03-03T22:47:56.180Z,25.00
2023-03-03T22:50:26.037Z,25.50
2023-03-03T22:52:55.382Z,25.70
2023-03-03T22:55:25.521Z,27.10
2023-03-03T22:57:55.071Z,22.10
2023-03-03T23:00:24.754Z,24.70
2023-03-03T23:02:54.462Z,21.20
2023-03-03T23:05:24.415Z,25.10
2023-03-03T23:07:53.816Z,24.10
2023-03-03T23:10:24.190Z,23.60
2023-03-03T23:12:54.128Z,24.80
2023-03-03T23:15:23.660Z,25.60
2023-03-03T23:17:56.313Z,24.50
2023-03-03T23:20:28.701Z,30.20
2023-03-03T23:23:00.045Z,28.20
2023-03-03T23:25:30.175Z,27.50
2023-03-03T23:28:00.856Z,26.50
2023-03-03T23:30:30.497Z,28.30
2023-03-03T23:33:00.319Z,26.10
2023-03-03T23:35:30.108Z,25.20
2023-03-03T23:37:59.885Z,28.00
2023-03-03T23:40:29.605Z,29.20
2023-03-03T23:42:59.360Z,28.80
2023-03-03T23:45:29.392Z,27.80
2023-03-03T23:47:59.845Z,32.30
2023-03-03T23:50:29.387Z,29.60
2023-03-03T23:52:59.408Z,30.00
2023-03-03T23:55:29.175Z,27.10
2023-03-03T23:57:58.997Z,25.40
